createdAt,value
2023-04-19T00:00:21.162Z,12.19
2023-04-19T00:02:50.076Z,12.22
2023-04-19T00:05:18.825Z,11.98
2023-04-19T00:07:47.462Z,11.92
2023-04-19T00:10:16.196Z,11.88
2023-04-19T00:12:44.651Z,11.78
2023-04-19T00:15:13.119Z,11.79
2023-04-19T00:17:43.304Z,11.91
2023-04-19T00:20:13.504Z,11.97
2023-04-19T00:22:42.098Z,12.15
2023-04-19T00:25:10.557Z,12.18
2023-04-19T00:27:39.002Z,11.97
2023-04-19T00:30:07.952Z,12.24
2023-04-19T00:32:36.507Z,12.33
2023-04-19T00:35:06.636Z,12.07
2023-04-19T00:37:34.930Z,12.28
2023-04-19T00:40:04.074Z,12.55
2023-04-19T00:42:32.222Z,12.36
2023-04-19T00:45:00.378Z,12.32
2023-04-19T00:47:28.469Z,11.90
2023-04-19T00:49:56.696Z,11.85
2023-04-19T00:52:26.915Z,12.05
2023-04-19T00:54:55.331Z,11.95
2023-04-19T00:57:23.364Z,12.24
2023-04-19T00:59:52.085Z,11.91
2023-04-19T01:02:22.450Z,11.95
2023-04-19T01:04:51.387Z,12.12
2023-04-19T01:07:20.809Z,12.15
2023-04-19T01:09:51.420Z,11.68
2023-04-19T01:12:19.967Z,11.47
2023-04-19T01:14:48.292Z,11.70
2023-04-19T01:17:19.565Z,11.40
2023-04-19T01:19:48.362Z,11.42
2023-04-19T01:22:21.857Z,11.70
2023-04-19T01:24:49.981Z,11.71
2023-04-19T01:27:20.117Z,11.93
2023-04-19T01:29:49.274Z,11.71
2023-04-19T01:32:18.983Z,11.83
2023-04-19T01:34:47.935Z,11.68
2023-04-19T01:37:16.693Z,11.66
2023-04-19T01:39:46.317Z,11.81
2023-04-19T01:42:14.740Z,11.69
2023-04-19T01:44:43.447Z,11.69
2023-04-19T01:47:12.288Z,11.71
2023-04-19T01:49:42.085Z,11.68
2023-04-19T01:52:10.509Z,11.71
2023-04-19T01:54:39.118Z,11.77
2023-04-19T01:57:08.658Z,11.67
2023-04-19T01:59:37.610Z,11.51
2023-04-19T02:02:08.554Z,11.30
2023-04-19T02:04:37.814Z,11.25
2023-04-19T02:07:08.265Z,11.00
2023-04-19T02:09:37.157Z,11.10
2023-04-19T02:12:07.448Z,11.15
2023-04-19T02:14:37.667Z,11.19
2023-04-19T02:17:06.358Z,11.06
2023-04-19T02:19:34.808Z,11.16
2023-04-19T02:22:03.345Z,10.91
2023-04-19T02:24:31.774Z,10.97
2023-04-19T02:27:00.025Z,10.96
2023-04-19T02:29:28.144Z,10.97
2023-04-19T02:31:58.196Z,11.06
2023-04-19T02:34:31.455Z,10.99
2023-04-19T02:37:01.393Z,10.86
2023-04-19T02:39:29.963Z,10.93
2023-04-19T02:41:58.453Z,10.71
2023-04-19T02:44:28.219Z,10.62
2023-04-19T02:46:59.063Z,10.52
2023-04-19T02:49:27.396Z,10.53
2023-04-19T02:51:55.799Z,10.51
2023-04-19T02:54:24.128Z,10.68
2023-04-19T02:56:54.298Z,10.59
2023-04-19T02:59:22.692Z,10.60
2023-04-19T03:01:51.310Z,10.38
2023-04-19T03:04:22.334Z,10.33
2023-04-19T03:06:51.094Z,10.37
2023-04-19T03:09:19.669Z,10.36
2023-04-19T03:11:47.960Z,10.24
2023-04-19T03:14:18.291Z,10.18
2023-04-19T03:16:47.692Z,10.17
2023-04-19T03:19:16.485Z,10.10
2023-04-19T03:21:51.458Z,10.12
2023-04-19T03:24:21.662Z,10.16
2023-04-19T03:26:52.919Z,10.04
2023-04-19T03:29:25.241Z,10.09
2023-04-19T03:32:06.942Z,10.10
2023-04-19T03:34:35.602Z,10.22
2023-04-19T03:37:05.365Z,10.20
2023-04-19T03:39:34.329Z,10.36
2023-04-19T03:42:07.233Z,10.30
2023-04-19T03:44:54.451Z,10.24
2023-04-19T03:47:24.264Z,10.25
2023-04-19T03:49:56.817Z,10.28
2023-04-19T03:52:27.694Z,10.30
2023-04-19T03:54:56.049Z,10.29
2023-04-19T03:57:38.281Z,10.27
2023-04-19T04:00:17.026Z,10.15
2023-04-19T04:02:51.573Z,10.19
2023-04-19T04:05:20.437Z,10.02
2023-04-19T04:07:51.298Z,9.90
2023-04-19T04:10:20.296Z,9.92
2023-04-19T04:12:48.872Z,9.88
2023-04-19T04:15:24.581Z,9.86
2023-04-19T04:17:55.172Z,9.88
2023-04-19T04:20:23.676Z,9.73
2023-04-19T04:22:58.461Z,9.67
2023-04-19T04:25:29.404Z,9.58
2023-04-19T04:28:00.711Z,9.62
2023-04-19T04:30:29.989Z,9.60
2023-04-19T04:33:00.163Z,9.70
2023-04-19T04:35:30.436Z,9.70
2023-04-19T04:38:23.546Z,9.74
2023-04-19T04:40:54.966Z,9.81
2023-04-19T04:43:24.407Z,9.80
2023-04-19T04:45:55.869Z,9.74
2023-04-19T04:48:25.059Z,9.65
2023-04-19T04:50:53.340Z,9.67
2023-04-19T04:53:22.798Z,9.69
2023-04-19T04:55:52.060Z,9.67
2023-04-19T04:58:20.638Z,9.72
2023-04-19T05:01:00.680Z,9.83
2023-04-19T05:03:30.208Z,9.99
2023-04-19T05:06:01.051Z,10.16
2023-04-19T05:08:32.951Z,10.28
2023-04-19T05:11:14.988Z,10.36
2023-04-19T05:13:44.167Z,10.52
2023-04-19T05:16:12.591Z,10.63
2023-04-19T05:18:44.216Z,10.56
2023-04-19T05:21:13.021Z,10.48
2023-04-19T05:23:44.599Z,10.53
2023-04-19T05:26:15.579Z,10.65
2023-04-19T05:28:45.158Z,10.70
2023-04-19T05:31:22.450Z,10.72
2023-04-19T05:34:22.546Z,10.67
2023-04-19T05:36:52.091Z,10.54
2023-04-19T05:39:22.021Z,10.80
2023-04-19T05:41:50.152Z,10.89
2023-04-19T05:44:18.860Z,10.91
2023-04-19T05:46:47.040Z,11.00
2023-04-19T05:49:20.400Z,11.08
2023-04-19T05:52:17.612Z,10.98
2023-04-19T05:54:55.163Z,11.08
2023-04-19T05:57:23.692Z,11.03
2023-04-19T05:59:52.601Z,11.64
2023-04-19T06:02:24.951Z,11.51
2023-04-19T06:04:53.665Z,11.61
2023-04-19T06:07:32.666Z,11.60
2023-04-19T06:10:04.960Z,11.42
2023-04-19T06:12:34.791Z,11.45
2023-04-19T06:15:03.326Z,11.39
2023-04-19T06:17:33.073Z,11.28
2023-04-19T06:20:02.386Z,11.34
2023-04-19T06:22:31.215Z,11.17
2023-04-19T06:24:59.504Z,11.35
2023-04-19T06:27:29.490Z,11.40
2023-04-19T06:29:58.078Z,11.61
2023-04-19T06:32:27.337Z,12.13
2023-04-19T06:34:55.812Z,12.47
2023-04-19T06:37:24.559Z,12.29
2023-04-19T06:39:53.397Z,12.38
2023-04-19T06:42:21.836Z,12.00
2023-04-19T06:44:52.504Z,12.01
2023-04-19T06:47:21.173Z,12.31
2023-04-19T06:49:51.151Z,12.12
2023-04-19T06:52:19.256Z,12.03
2023-04-19T06:54:48.855Z,12.42
2023-04-19T06:57:17.458Z,12.60
2023-04-19T06:59:46.542Z,13.30
2023-04-19T07:02:16.665Z,12.97
2023-04-19T07:04:45.414Z,12.56
2023-04-19T07:07:14.634Z,12.34
2023-04-19T07:09:42.874Z,12.57
2023-04-19T07:12:11.370Z,12.57
2023-04-19T07:14:40.435Z,12.32
2023-04-19T07:17:08.629Z,12.54
2023-04-19T07:19:38.819Z,12.93
2023-04-19T07:22:07.881Z,12.93
2023-04-19T07:24:36.408Z,13.02
2023-04-19T07:27:05.113Z,13.19
2023-04-19T07:29:36.925Z,13.18
2023-04-19T07:32:05.497Z,13.29
2023-04-19T07:34:34.144Z,13.23
2023-04-19T07:37:03.738Z,12.87
2023-04-19T07:39:32.321Z,12.67
2023-04-19T07:42:01.954Z,13.18
2023-04-19T07:44:30.635Z,13.24
2023-04-19T07:46:59.401Z,13.19
2023-04-19T07:49:27.863Z,13.14
2023-04-19T07:51:56.299Z,13.16
2023-04-19T07:54:25.925Z,13.05
2023-04-19T07:56:54.238Z,12.72
2023-04-19T07:59:22.612Z,12.81
2023-04-19T08:01:51.016Z,12.37
2023-04-19T08:04:21.083Z,12.21
2023-04-19T08:06:49.851Z,12.67
2023-04-19T08:09:19.276Z,12.27
2023-04-19T08:11:48.929Z,12.59
2023-04-19T08:14:32.109Z,12.35
2023-04-19T08:19:36.075Z,12.62
2023-04-19T08:22:04.982Z,12.46
2023-04-19T08:24:33.016Z,12.91
2023-04-19T08:27:02.667Z,13.47
2023-04-19T08:29:31.149Z,13.96
2023-04-19T08:31:59.440Z,13.74
2023-04-19T08:34:28.119Z,13.23
2023-04-19T08:37:04.145Z,13.31
2023-04-19T08:39:34.206Z,13.12
2023-04-19T08:42:10.353Z,13.07
2023-04-19T08:44:59.083Z,13.73
2023-04-19T08:47:32.481Z,14.14
2023-04-19T08:52:37.274Z,13.71
2023-04-19T08:55:12.626Z,13.67
2023-04-19T08:57:42.274Z,13.53
2023-04-19T09:00:11.468Z,14.56
2023-04-19T09:02:47.779Z,14.39
2023-04-19T09:05:17.110Z,14.85
2023-04-19T09:07:46.053Z,15.23
2023-04-19T09:10:15.537Z,14.57
2023-04-19T09:12:45.272Z,15.47
2023-04-19T09:15:13.594Z,15.59
2023-04-19T09:17:42.367Z,16.27
2023-04-19T09:20:11.819Z,16.31
2023-04-19T09:22:40.348Z,16.07
2023-04-19T09:27:39.464Z,15.86
2023-04-19T09:30:17.621Z,14.61
2023-04-19T09:32:49.901Z,14.69
2023-04-19T09:35:21.394Z,15.49
2023-04-19T09:38:06.313Z,15.47
2023-04-19T09:40:35.408Z,15.51
2023-04-19T09:45:44.186Z,14.84
2023-04-19T09:48:12.570Z,15.47
2023-04-19T09:50:58.967Z,14.67
2023-04-19T09:53:34.310Z,15.78
2023-04-19T09:56:03.958Z,17.50
2023-04-19T09:58:46.921Z,16.14
2023-04-19T10:01:20.309Z,16.20
2023-04-19T10:03:50.957Z,16.34
2023-04-19T10:08:51.899Z,16.02
2023-04-19T10:11:23.510Z,15.24
2023-04-19T10:13:55.827Z,15.23
2023-04-19T10:16:23.836Z,15.86
2023-04-19T10:18:55.028Z,16.38
2023-04-19T10:21:23.785Z,15.92
2023-04-19T10:23:52.294Z,16.80
2023-04-19T10:26:20.663Z,16.71
2023-04-19T10:28:49.086Z,15.67
2023-04-19T10:31:21.700Z,16.08
2023-04-19T10:33:49.946Z,14.77
2023-04-19T10:36:19.430Z,15.70
2023-04-19T10:38:48.434Z,14.57
2023-04-19T10:41:18.298Z,15.21
2023-04-19T10:43:47.952Z,17.18
2023-04-19T10:46:17.427Z,17.34
2023-04-19T10:48:54.419Z,16.29
2023-04-19T10:51:24.817Z,16.19
2023-04-19T10:53:53.739Z,17.97
2023-04-19T10:56:22.711Z,17.76
2023-04-19T10:59:11.218Z,19.61
2023-04-19T11:01:40.921Z,17.49
2023-04-19T11:04:10.785Z,16.23
2023-04-19T11:06:57.731Z,15.13
2023-04-19T11:09:26.253Z,15.17
2023-04-19T11:11:55.045Z,17.63
2023-04-19T11:14:23.341Z,18.98
2023-04-19T11:16:51.584Z,20.02
2023-04-19T11:19:20.541Z,19.74
2023-04-19T11:21:50.465Z,20.01
2023-04-19T11:24:21.119Z,18.79
2023-04-19T11:26:49.335Z,19.89
2023-04-19T11:29:17.499Z,19.75
2023-04-19T11:31:47.432Z,17.37
2023-04-19T11:34:16.079Z,16.66
2023-04-19T11:36:54.812Z,17.87
2023-04-19T11:39:23.047Z,19.40
2023-04-19T11:41:51.683Z,21.01
2023-04-19T11:44:20.918Z,20.56
2023-04-19T11:47:02.257Z,18.80
2023-04-19T11:49:31.797Z,19.31
2023-04-19T11:52:04.632Z,18.09
2023-04-19T11:54:34.176Z,17.56
2023-04-19T11:57:06.175Z,18.44
2023-04-19T11:59:35.135Z,18.53
2023-04-19T12:02:06.606Z,18.54
2023-04-19T12:04:35.480Z,19.15
2023-04-19T12:07:06.266Z,19.84
2023-04-19T12:09:35.209Z,20.25
2023-04-19T12:12:05.729Z,17.94
2023-04-19T12:14:34.588Z,20.10
2023-04-19T12:17:10.710Z,18.35
2023-04-19T12:19:43.423Z,18.47
2023-04-19T12:22:14.085Z,18.91
2023-04-19T12:24:42.885Z,17.78
2023-04-19T12:27:11.637Z,18.58
2023-04-19T12:29:40.474Z,19.22
2023-04-19T12:32:08.319Z,18.80
2023-04-19T12:34:36.471Z,19.50
2023-04-19T12:37:05.044Z,18.67
2023-04-19T12:39:34.893Z,19.09
2023-04-19T12:42:03.460Z,20.33
2023-04-19T12:44:32.203Z,19.89
2023-04-19T12:47:00.215Z,20.09
2023-04-19T12:49:28.591Z,18.60
2023-04-19T12:51:57.521Z,19.92
2023-04-19T12:54:26.292Z,18.43
2023-04-19T12:56:56.444Z,19.19
2023-04-19T12:59:25.215Z,19.71
2023-04-19T13:01:53.985Z,20.31
2023-04-19T13:04:23.143Z,18.93
2023-04-19T13:06:51.665Z,18.44
2023-04-19T13:09:20.439Z,20.50
2023-04-19T13:11:48.786Z,20.43
2023-04-19T13:14:18.621Z,21.04
2023-04-19T13:16:47.218Z,20.46
2023-04-19T13:19:16.080Z,19.79
2023-04-19T13:21:44.381Z,19.87
2023-04-19T13:24:13.052Z,18.67
2023-04-19T13:26:41.867Z,18.21
2023-04-19T13:29:10.409Z,18.77
2023-04-19T13:31:43.853Z,17.94
2023-04-19T13:34:12.342Z,18.14
2023-04-19T13:36:41.245Z,18.34
2023-04-19T13:39:10.191Z,18.99
2023-04-19T13:41:38.524Z,19.03
2023-04-19T13:44:06.986Z,19.44
2023-04-19T13:46:35.318Z,20.37
2023-04-19T13:49:05.332Z,20.55
2023-04-19T13:51:46.493Z,19.33
2023-04-19T13:54:18.444Z,21.54
2023-04-19T13:56:49.182Z,21.67
2023-04-19T13:59:18.995Z,22.02
2023-04-19T14:01:47.036Z,21.03
2023-04-19T14:04:17.290Z,20.49
2023-04-19T14:06:45.943Z,21.18
2023-04-19T14:09:15.007Z,22.15
2023-04-19T14:11:43.519Z,21.35
2023-04-19T14:14:12.065Z,21.15
2023-04-19T14:16:40.416Z,19.79
2023-04-19T14:19:08.839Z,19.46
2023-04-19T14:21:38.669Z,19.88
2023-04-19T14:24:07.907Z,19.84
2023-04-19T14:26:36.371Z,21.72
2023-04-19T14:29:05.227Z,21.38
2023-04-19T14:31:35.054Z,21.95
2023-04-19T14:34:03.436Z,20.37
2023-04-19T14:36:31.793Z,18.65
2023-04-19T14:39:01.474Z,19.96
2023-04-19T14:41:30.624Z,21.46
2023-04-19T14:43:59.179Z,21.51
2023-04-19T14:46:28.811Z,22.59
2023-04-19T14:48:57.285Z,19.47
2023-04-19T14:51:25.445Z,20.36
2023-04-19T14:53:53.649Z,19.29
2023-04-19T14:56:23.390Z,20.01
2023-04-19T14:58:51.811Z,21.38
2023-04-19T15:01:22.441Z,21.44
2023-04-19T15:03:53.566Z,22.02
2023-04-19T15:06:21.572Z,20.52
2023-04-19T15:08:49.410Z,20.19
2023-04-19T15:11:18.863Z,20.05
2023-04-19T15:13:48.287Z,19.76
2023-04-19T15:16:16.344Z,19.64
2023-04-19T15:18:44.313Z,19.18
2023-04-19T15:21:12.292Z,18.70
2023-04-19T15:23:39.892Z,19.96
2023-04-19T15:26:07.716Z,20.58
2023-04-19T15:28:36.366Z,19.63
2023-04-19T15:31:08.902Z,18.84
2023-04-19T15:33:37.663Z,19.02
2023-04-19T15:36:06.115Z,18.33
2023-04-19T15:38:34.041Z,19.07
2023-04-19T15:41:02.033Z,19.98
2023-04-19T15:43:30.071Z,19.94
2023-04-19T15:45:57.865Z,21.24
2023-04-19T15:48:27.322Z,21.05
2023-04-19T15:50:54.973Z,20.92
2023-04-19T15:53:22.906Z,20.17
2023-04-19T15:55:50.807Z,19.46
2023-04-19T15:58:18.858Z,18.82
2023-04-19T16:00:46.821Z,19.35
2023-04-19T16:03:14.828Z,18.67
2023-04-19T16:05:45.663Z,18.91
2023-04-19T16:08:19.370Z,19.33
2023-04-19T16:10:47.582Z,18.20
2023-04-19T16:13:15.740Z,18.16
2023-04-19T16:15:44.808Z,17.19
2023-04-19T16:18:14.198Z,17.26
2023-04-19T16:20:51.359Z,17.71
2023-04-19T16:23:21.541Z,17.27
2023-04-19T16:25:50.218Z,16.19
2023-04-19T16:28:19.794Z,16.64
2023-04-19T16:30:47.843Z,16.63
2023-04-19T16:33:16.938Z,17.89
2023-04-19T16:35:44.837Z,17.15
2023-04-19T16:38:13.006Z,17.39
2023-04-19T16:40:46.325Z,16.71
2023-04-19T16:43:14.827Z,16.55
2023-04-19T16:45:42.791Z,16.71
2023-04-19T16:48:10.953Z,16.91
2023-04-19T16:50:40.245Z,16.39
2023-04-19T16:53:08.235Z,16.99
2023-04-19T16:55:36.310Z,16.41
2023-04-19T16:58:08.100Z,15.62
2023-04-19T17:00:36.194Z,15.44
2023-04-19T17:03:04.381Z,15.34
2023-04-19T17:05:32.460Z,14.88
2023-04-19T17:08:00.427Z,14.59
2023-04-19T17:10:29.226Z,14.58
2023-04-19T17:12:57.411Z,14.36
2023-04-19T17:15:26.995Z,14.07
2023-04-19T17:17:55.795Z,14.66
2023-04-19T17:20:23.725Z,14.41
2023-04-19T17:22:54.007Z,14.55
2023-04-19T17:25:22.433Z,14.73
2023-04-19T17:27:51.015Z,14.63
2023-04-19T17:30:19.740Z,14.71
2023-04-19T17:32:51.422Z,14.78
2023-04-19T17:35:19.820Z,14.30
2023-04-19T17:37:48.087Z,13.47
2023-04-19T17:40:17.168Z,12.95
2023-04-19T17:42:45.345Z,12.75
2023-04-19T17:45:13.727Z,12.66
2023-04-19T17:47:42.264Z,12.53
2023-04-19T17:50:13.055Z,12.43
2023-04-19T17:52:42.744Z,12.36
2023-04-19T17:55:10.881Z,12.27
2023-04-19T17:57:39.526Z,12.19
2023-04-19T18:00:10.530Z,12.16
2023-04-19T18:02:39.187Z,12.06
2023-04-19T18:05:08.445Z,12.02
2023-04-19T18:07:38.850Z,12.10
2023-04-19T18:10:08.213Z,12.21
2023-04-19T18:12:36.816Z,12.27
2023-04-19T18:15:06.310Z,12.10
2023-04-19T18:17:34.879Z,11.84
2023-04-19T18:20:07.174Z,11.67
2023-04-19T18:22:34.844Z,11.53
2023-04-19T18:25:05.020Z,11.41
2023-04-19T18:27:33.019Z,11.27
2023-04-19T18:30:04.101Z,11.24
2023-04-19T18:32:33.240Z,11.21
2023-04-19T18:35:04.050Z,11.17
2023-04-19T18:37:32.490Z,10.99
2023-04-19T18:40:00.263Z,10.93
2023-04-19T18:42:29.722Z,10.86
2023-04-19T18:44:57.566Z,10.86
2023-04-19T18:47:26.549Z,10.78
2023-04-19T18:52:26.369Z,10.63
2023-04-19T18:54:56.433Z,10.56
2023-04-19T18:57:27.481Z,10.44
2023-04-19T18:59:58.612Z,10.40
2023-04-19T19:02:27.543Z,10.42
2023-04-19T19:05:01.389Z,10.32
2023-04-19T19:10:02.453Z,10.19
2023-04-19T19:12:33.816Z,10.13
2023-04-19T19:15:03.444Z,10.09
2023-04-19T19:17:31.929Z,10.05
2023-04-19T19:20:00.868Z,9.96
2023-04-19T19:22:31.102Z,9.88
2023-04-19T19:24:59.807Z,9.76
2023-04-19T19:27:28.120Z,9.71
2023-04-19T19:29:56.497Z,9.72
2023-04-19T19:32:27.034Z,9.67
2023-04-19T19:35:03.145Z,9.63
2023-04-19T19:37:33.994Z,9.57
2023-04-19T19:40:07.012Z,9.59
2023-04-19T19:42:35.188Z,9.59
2023-04-19T19:45:04.597Z,9.55
2023-04-19T19:47:35.685Z,9.59
2023-04-19T19:52:38.847Z,9.36
2023-04-19T19:55:08.815Z,9.41
2023-04-19T20:02:55.076Z,9.25
2023-04-19T20:05:25.903Z,9.18
2023-04-19T20:08:05.965Z,9.20
2023-04-19T20:10:34.926Z,9.21
2023-04-19T20:13:06.082Z,9.26
2023-04-19T20:15:35.347Z,9.19
2023-04-19T20:18:04.964Z,9.16
2023-04-19T20:20:33.624Z,9.19
2023-04-19T20:23:02.303Z,9.05
2023-04-19T20:25:33.206Z,9.04
2023-04-19T20:28:02.202Z,8.95
2023-04-19T20:30:30.302Z,8.92
2023-04-19T20:32:58.433Z,8.91
2023-04-19T20:35:29.686Z,8.84
2023-04-19T20:38:02.513Z,8.70
2023-04-19T20:40:32.290Z,8.71
2023-04-19T20:43:01.422Z,8.68
2023-04-19T20:45:30.133Z,8.71
2023-04-19T20:47:58.783Z,8.77
2023-04-19T20:50:28.643Z,8.77
2023-04-19T20:52:58.244Z,8.70
2023-04-19T20:55:27.211Z,8.66
2023-04-19T20:57:56.722Z,8.63
2023-04-19T21:00:25.490Z,8.66
2023-04-19T21:02:54.251Z,8.56
2023-04-19T21:05:23.419Z,8.62
2023-04-19T21:07:53.304Z,8.53
2023-04-19T21:10:22.825Z,8.48
2023-04-19T21:12:50.831Z,8.38
2023-04-19T21:15:19.775Z,8.16
2023-04-19T21:17:48.496Z,8.11
2023-04-19T21:20:18.329Z,7.93
2023-04-19T21:22:48.921Z,7.88
2023-04-19T21:25:19.160Z,7.85
2023-04-19T21:27:48.525Z,7.66
2023-04-19T21:30:17.070Z,7.57
2023-04-19T21:32:45.801Z,7.53
2023-04-19T21:35:13.913Z,7.49
2023-04-19T21:37:42.372Z,7.47
2023-04-19T21:40:11.088Z,7.30
2023-04-19T21:42:40.924Z,7.28
2023-04-19T21:45:09.480Z,7.25
2023-04-19T21:47:38.122Z,7.21
2023-04-19T21:50:07.456Z,7.20
2023-04-19T21:52:35.861Z,7.24
2023-04-19T21:55:03.929Z,7.11
2023-04-19T21:57:32.480Z,6.94
2023-04-19T22:00:02.382Z,6.85
2023-04-19T22:02:31.067Z,6.78
2023-04-19T22:05:00.612Z,6.75
2023-04-19T22:07:30.775Z,6.70
2023-04-19T22:09:59.520Z,6.70
2023-04-19T22:12:28.241Z,6.62
2023-04-19T22:14:56.661Z,6.60
2023-04-19T22:17:27.770Z,6.50
2023-04-19T22:19:56.622Z,6.55
2023-04-19T22:22:25.260Z,6.60
2023-04-19T22:24:58.075Z,6.55
2023-04-19T22:27:26.613Z,6.74
2023-04-19T22:29:54.604Z,6.70
2023-04-19T22:32:22.603Z,6.51
2023-04-19T22:34:52.957Z,6.39
2023-04-19T22:37:21.597Z,6.43
2023-04-19T22:39:49.589Z,6.61
2023-04-19T22:42:17.560Z,6.79
2023-04-19T22:44:45.681Z,6.71
2023-04-19T22:47:14.805Z,6.76
2023-04-19T22:49:43.633Z,6.57
2023-04-19T22:52:14.705Z,6.52
2023-04-19T22:54:43.275Z,6.31
2023-04-19T22:57:12.506Z,6.30
2023-04-19T22:59:41.237Z,6.46
2023-04-19T23:02:09.982Z,6.35
2023-04-19T23:04:39.607Z,6.28
2023-04-19T23:07:08.435Z,6.21
2023-04-19T23:09:39.541Z,6.13
2023-04-19T23:12:08.558Z,6.11
2023-04-19T23:14:38.772Z,6.09
2023-04-19T23:17:08.820Z,5.92
2023-04-19T23:19:37.981Z,5.86
2023-04-19T23:22:06.801Z,5.78
2023-04-19T23:24:36.366Z,5.80
2023-04-19T23:27:06.155Z,6.00
2023-04-19T23:29:34.737Z,5.91
2023-04-19T23:32:03.522Z,5.82
2023-04-19T23:34:32.631Z,5.74
2023-04-19T23:37:01.884Z,5.64
2023-04-19T23:39:30.969Z,5.50
2023-04-19T23:41:59.681Z,5.38
2023-04-19T23:44:29.429Z,5.35
2023-04-19T23:46:58.211Z,5.32
2023-04-19T23:49:27.383Z,5.32
2023-04-19T23:51:55.724Z,5.24
2023-04-19T23:54:26.418Z,5.27
2023-04-19T23:56:55.200Z,5.22
2023-04-19T23:59:26.920Z,5.13
